createdAt,value
2023-04-26T00:00:53.512Z,8.07
2023-04-26T00:03:20.719Z,8.08
2023-04-26T00:05:48.996Z,8.07
2023-04-26T00:08:15.993Z,8.05
2023-04-26T00:10:43.097Z,7.98
2023-04-26T00:13:09.916Z,7.93
2023-04-26T00:15:37.077Z,7.84
2023-04-26T00:18:06.493Z,7.81
2023-04-26T00:20:33.738Z,7.75
2023-04-26T00:23:00.676Z,7.69
2023-04-26T00:25:28.169Z,7.65
2023-04-26T00:27:54.985Z,7.61
2023-04-26T00:30:22.590Z,7.55
2023-04-26T00:32:49.792Z,7.46
2023-04-26T00:35:17.162Z,7.47
2023-04-26T00:37:46.793Z,7.48
2023-04-26T00:40:14.143Z,7.48
2023-04-26T00:42:44.018Z,7.40
2023-04-26T00:45:11.251Z,7.34
2023-04-26T00:47:38.321Z,7.32
2023-04-26T00:50:07.202Z,7.38
2023-04-26T00:52:34.072Z,7.46
2023-04-26T00:55:01.418Z,7.50
2023-04-26T00:57:28.370Z,7.55
2023-04-26T00:59:58.052Z,7.54
2023-04-26T01:02:26.924Z,7.51
2023-04-26T01:04:54.210Z,7.45
2023-04-26T01:07:21.090Z,7.41
2023-04-26T01:09:49.134Z,7.37
2023-04-26T01:12:19.368Z,7.31
2023-04-26T01:14:49.429Z,7.26
2023-04-26T01:17:16.671Z,7.26
2023-04-26T01:19:47.780Z,7.26
2023-04-26T01:22:14.832Z,7.24
2023-04-26T01:24:46.203Z,7.30
2023-04-26T01:27:13.065Z,7.35
2023-04-26T01:29:41.442Z,7.38
2023-04-26T01:32:10.865Z,7.40
2023-04-26T01:34:38.153Z,7.39
2023-04-26T01:37:05.063Z,7.43
2023-04-26T01:39:32.116Z,7.43
2023-04-26T01:41:59.076Z,7.40
2023-04-26T01:44:26.269Z,7.41
2023-04-26T01:46:53.027Z,7.38
2023-04-26T01:49:20.830Z,7.35
2023-04-26T01:51:47.674Z,7.27
2023-04-26T01:54:15.020Z,7.18
2023-04-26T01:56:42.225Z,7.13
2023-04-26T01:59:11.709Z,7.09
2023-04-26T02:01:38.693Z,6.96
2023-04-26T02:04:06.624Z,6.89
2023-04-26T02:06:33.565Z,6.85
2023-04-26T02:09:00.708Z,6.75
2023-04-26T02:11:27.693Z,6.71
2023-04-26T02:13:57.313Z,6.64
2023-04-26T02:16:24.365Z,6.51
2023-04-26T02:18:53.798Z,6.50
2023-04-26T02:21:21.595Z,6.46
2023-04-26T02:23:48.707Z,6.41
2023-04-26T02:26:15.740Z,6.36
2023-04-26T02:28:43.920Z,6.32
2023-04-26T02:31:11.426Z,6.31
2023-04-26T02:33:38.722Z,6.24
2023-04-26T02:36:06.334Z,6.28
2023-04-26T02:38:36.961Z,6.24
2023-04-26T02:41:05.537Z,6.23
2023-04-26T02:43:33.665Z,6.20
2023-04-26T02:46:06.657Z,6.13
2023-04-26T02:48:34.034Z,5.98
2023-04-26T02:51:01.352Z,5.95
2023-04-26T02:53:28.874Z,5.95
2023-04-26T02:55:55.797Z,5.96
2023-04-26T02:58:23.182Z,5.94
2023-04-26T03:00:50.047Z,5.89
2023-04-26T03:03:20.011Z,5.91
2023-04-26T03:05:47.101Z,5.90
2023-04-26T03:08:16.705Z,5.87
2023-04-26T03:10:46.818Z,5.84
2023-04-26T03:13:14.089Z,5.84
2023-04-26T03:15:44.428Z,5.83
2023-04-26T03:18:11.582Z,5.89
2023-04-26T03:20:38.432Z,5.88
2023-04-26T03:23:05.668Z,5.80
2023-04-26T03:25:33.171Z,5.78
2023-04-26T03:28:00.413Z,5.78
2023-04-26T03:30:27.264Z,5.77
2023-04-26T03:32:54.971Z,5.82
2023-04-26T03:35:21.887Z,5.86
2023-04-26T03:37:50.813Z,5.84
2023-04-26T03:40:19.335Z,5.75
2023-04-26T03:42:46.931Z,5.74
2023-04-26T03:45:15.324Z,5.69
2023-04-26T03:47:42.590Z,5.64
2023-04-26T03:50:10.036Z,5.68
2023-04-26T03:52:37.308Z,5.66
2023-04-26T03:55:05.381Z,5.64
2023-04-26T03:57:32.945Z,5.65
2023-04-26T04:00:00.813Z,5.63
2023-04-26T04:02:28.448Z,5.65
2023-04-26T04:04:59.594Z,5.62
2023-04-26T04:07:26.862Z,5.65
2023-04-26T04:09:53.719Z,5.65
2023-04-26T04:12:20.921Z,5.67
2023-04-26T04:14:48.767Z,5.73
2023-04-26T04:17:16.889Z,5.76
2023-04-26T04:19:43.866Z,5.91
2023-04-26T04:22:11.253Z,6.16
2023-04-26T04:24:39.227Z,6.16
2023-04-26T04:27:07.075Z,6.26
2023-04-26T04:29:35.165Z,6.37
2023-04-26T04:32:02.431Z,6.41
2023-04-26T04:34:33.711Z,6.44
2023-04-26T04:37:01.031Z,6.44
2023-04-26T04:39:28.351Z,6.38
2023-04-26T04:41:56.379Z,6.39
2023-04-26T04:44:24.360Z,6.44
2023-04-26T04:46:53.063Z,6.47
2023-04-26T04:49:20.918Z,6.52
2023-04-26T04:51:48.548Z,6.49
2023-04-26T04:54:18.411Z,6.47
2023-04-26T04:56:47.530Z,6.52
2023-04-26T04:59:15.855Z,6.47
2023-04-26T05:01:43.271Z,6.48
2023-04-26T05:04:14.096Z,6.54
2023-04-26T05:06:41.807Z,6.59
2023-04-26T05:09:11.529Z,6.71
2023-04-26T05:11:38.941Z,6.71
2023-04-26T05:14:07.940Z,7.00
2023-04-26T05:16:35.957Z,7.31
2023-04-26T05:19:03.581Z,7.30
2023-04-26T05:21:31.641Z,7.25
2023-04-26T05:23:58.697Z,7.81
2023-04-26T05:26:26.880Z,8.11
2023-04-26T05:29:16.858Z,7.96
2023-04-26T05:31:59.334Z,7.92
2023-04-26T05:34:52.085Z,7.87
2023-04-26T05:37:19.477Z,7.88
2023-04-26T05:39:46.334Z,7.96
2023-04-26T05:42:15.168Z,8.34
2023-04-26T05:44:43.365Z,8.58
2023-04-26T05:47:10.792Z,8.17
2023-04-26T05:49:37.620Z,8.10
2023-04-26T05:52:04.861Z,8.17
2023-04-26T05:54:31.773Z,8.68
2023-04-26T05:56:59.379Z,8.85
2023-04-26T05:59:28.284Z,8.69
2023-04-26T06:01:59.812Z,8.53
2023-04-26T06:04:29.364Z,8.93
2023-04-26T06:07:10.575Z,9.03
2023-04-26T06:09:37.436Z,9.02
2023-04-26T06:12:04.899Z,9.09
2023-04-26T06:14:35.267Z,9.65
2023-04-26T06:17:07.083Z,10.18
2023-04-26T06:19:33.961Z,10.19
2023-04-26T06:22:01.135Z,9.69
2023-04-26T06:24:28.423Z,9.42
2023-04-26T06:26:55.927Z,9.43
2023-04-26T06:29:22.924Z,9.30
2023-04-26T06:31:50.023Z,9.47
2023-04-26T06:34:20.059Z,9.60
2023-04-26T06:36:48.103Z,10.07
2023-04-26T06:39:15.485Z,10.41
2023-04-26T06:41:43.837Z,10.72
2023-04-26T06:44:12.056Z,12.57
2023-04-26T06:46:43.183Z,13.99
2023-04-26T06:49:11.792Z,15.32
2023-04-26T06:51:38.984Z,15.99
2023-04-26T06:54:05.899Z,16.53
2023-04-26T06:56:33.177Z,16.52
2023-04-26T06:59:03.920Z,16.96
2023-04-26T07:01:34.415Z,17.77
2023-04-26T07:04:03.506Z,17.66
2023-04-26T07:06:33.582Z,18.59
2023-04-26T07:09:01.553Z,18.20
2023-04-26T07:11:31.312Z,19.23
2023-04-26T07:13:58.313Z,18.63
2023-04-26T07:16:27.921Z,18.87
2023-04-26T07:18:58.262Z,19.23
2023-04-26T07:21:26.968Z,18.86
2023-04-26T07:23:56.941Z,18.89
2023-04-26T07:26:27.433Z,18.04
2023-04-26T07:28:56.961Z,19.37
2023-04-26T07:31:24.256Z,19.27
2023-04-26T07:33:51.511Z,15.66
2023-04-26T07:36:19.061Z,15.21
2023-04-26T07:38:45.943Z,15.65
2023-04-26T07:41:13.182Z,16.48
2023-04-26T07:43:40.116Z,15.68
2023-04-26T07:46:07.390Z,16.60
2023-04-26T07:48:34.318Z,14.02
2023-04-26T07:51:11.510Z,14.62
2023-04-26T07:54:11.118Z,15.60
2023-04-26T07:56:38.407Z,17.67
2023-04-26T07:59:05.306Z,15.90
2023-04-26T08:01:32.566Z,15.88
2023-04-26T08:03:59.998Z,15.64
2023-04-26T08:06:29.430Z,17.72
2023-04-26T08:08:56.365Z,17.13
2023-04-26T08:11:25.791Z,18.14
2023-04-26T08:13:55.436Z,18.68
2023-04-26T08:16:25.227Z,18.65
2023-04-26T08:18:52.385Z,17.84
2023-04-26T08:21:19.661Z,17.87
2023-04-26T08:23:46.849Z,17.03
2023-04-26T08:26:14.434Z,16.76
2023-04-26T08:28:43.752Z,15.36
2023-04-26T08:31:10.889Z,14.25
2023-04-26T08:33:37.993Z,13.35
2023-04-26T08:36:05.477Z,12.87
2023-04-26T08:38:32.688Z,12.69
2023-04-26T08:41:03.546Z,12.19
2023-04-26T08:43:30.396Z,11.93
2023-04-26T08:45:59.355Z,11.82
2023-04-26T08:48:32.994Z,11.66
2023-04-26T08:51:01.468Z,11.51
2023-04-26T08:53:29.336Z,11.65
2023-04-26T08:55:59.419Z,15.05
2023-04-26T08:58:27.153Z,15.26
2023-04-26T09:00:54.449Z,13.40
2023-04-26T09:03:23.259Z,12.65
2023-04-26T09:05:50.902Z,12.53
2023-04-26T09:08:18.342Z,12.04
2023-04-26T09:10:45.839Z,11.94
2023-04-26T09:13:13.043Z,11.97
2023-04-26T09:15:40.428Z,11.84
2023-04-26T09:18:17.692Z,11.67
2023-04-26T09:21:01.631Z,11.60
2023-04-26T09:23:28.523Z,11.55
2023-04-26T09:25:55.935Z,11.83
2023-04-26T09:28:23.531Z,11.91
2023-04-26T09:30:51.016Z,11.99
2023-04-26T09:33:20.376Z,11.66
2023-04-26T09:35:47.659Z,11.60
2023-04-26T09:38:15.689Z,11.30
2023-04-26T09:40:44.172Z,11.14
2023-04-26T09:43:15.760Z,10.94
2023-04-26T09:45:45.103Z,11.41
2023-04-26T09:48:16.933Z,11.67
2023-04-26T09:50:45.904Z,12.06
2023-04-26T09:53:27.202Z,11.74
2023-04-26T09:55:55.128Z,11.38
2023-04-26T09:58:23.280Z,11.03
2023-04-26T10:00:51.555Z,10.68
2023-04-26T10:03:20.022Z,10.14
2023-04-26T10:05:49.681Z,9.95
2023-04-26T10:08:16.679Z,9.94
2023-04-26T10:10:44.243Z,10.22
2023-04-26T10:13:12.322Z,12.56
2023-04-26T10:15:40.387Z,14.14
2023-04-26T10:18:07.275Z,13.27
2023-04-26T10:20:38.629Z,12.86
2023-04-26T10:23:07.192Z,12.35
2023-04-26T10:25:35.581Z,12.62
2023-04-26T10:28:03.607Z,14.03
2023-04-26T10:30:32.245Z,15.29
2023-04-26T10:32:59.172Z,16.07
2023-04-26T10:35:32.966Z,15.63
2023-04-26T10:37:59.851Z,15.68
2023-04-26T10:40:40.493Z,16.12
2023-04-26T10:43:16.432Z,15.02
2023-04-26T10:45:44.514Z,13.96
2023-04-26T10:48:21.578Z,13.28
2023-04-26T10:51:13.328Z,12.58
2023-04-26T10:53:52.319Z,12.12
2023-04-26T10:56:26.045Z,11.71
2023-04-26T11:01:41.064Z,11.31
2023-04-26T11:04:12.234Z,11.76
2023-04-26T11:06:49.330Z,12.72
2023-04-26T11:09:37.567Z,13.52
2023-04-26T11:12:05.697Z,13.74
2023-04-26T11:14:35.854Z,13.50
2023-04-26T11:17:04.851Z,13.62
2023-04-26T11:19:32.546Z,13.88
2023-04-26T11:22:00.979Z,13.95
2023-04-26T11:24:28.757Z,13.76
2023-04-26T11:26:56.007Z,13.44
2023-04-26T11:29:23.161Z,13.88
2023-04-26T11:31:55.972Z,13.69
2023-04-26T11:34:35.826Z,13.50
2023-04-26T11:37:04.977Z,12.96
2023-04-26T11:39:32.681Z,12.77
2023-04-26T11:42:09.906Z,12.65
2023-04-26T11:44:37.490Z,13.14
2023-04-26T11:47:09.240Z,13.55
2023-04-26T11:49:37.308Z,13.63
2023-04-26T11:52:06.104Z,14.49
2023-04-26T11:54:37.808Z,15.13
2023-04-26T11:57:17.325Z,15.22
2023-04-26T11:59:44.946Z,15.06
2023-04-26T12:02:12.584Z,14.32
2023-04-26T12:04:41.191Z,14.08
2023-04-26T12:07:09.849Z,14.00
2023-04-26T12:09:40.470Z,13.60
2023-04-26T12:12:07.753Z,13.64
2023-04-26T12:14:38.340Z,13.45
2023-04-26T12:17:06.475Z,13.17
2023-04-26T12:19:34.193Z,12.83
2023-04-26T12:22:01.749Z,12.80
2023-04-26T12:24:34.726Z,13.19
2023-04-26T12:27:06.261Z,13.43
2023-04-26T12:29:33.522Z,13.09
2023-04-26T12:32:03.854Z,12.75
2023-04-26T12:34:33.527Z,12.77
2023-04-26T12:37:03.842Z,13.05
2023-04-26T12:39:30.919Z,13.47
2023-04-26T12:41:58.038Z,13.95
2023-04-26T12:44:25.129Z,13.77
2023-04-26T12:46:52.625Z,13.44
2023-04-26T12:49:19.538Z,13.21
2023-04-26T12:51:46.777Z,13.21
2023-04-26T12:54:13.651Z,13.63
2023-04-26T12:56:44.374Z,13.90
2023-04-26T12:59:11.538Z,13.90
2023-04-26T13:01:41.494Z,13.55
2023-04-26T13:04:08.803Z,13.42
2023-04-26T13:06:36.491Z,13.49
2023-04-26T13:09:03.775Z,13.77
2023-04-26T13:11:31.013Z,13.85
2023-04-26T13:13:57.931Z,13.85
2023-04-26T13:16:25.549Z,14.05
2023-04-26T13:18:55.647Z,14.10
2023-04-26T13:21:22.902Z,13.93
2023-04-26T13:23:49.685Z,13.98
2023-04-26T13:26:19.425Z,14.06
2023-04-26T13:28:47.595Z,14.19
2023-04-26T13:31:17.264Z,13.55
2023-04-26T13:33:45.052Z,13.86
2023-04-26T13:36:12.258Z,14.02
2023-04-26T13:38:39.252Z,13.90
2023-04-26T13:41:06.417Z,13.51
2023-04-26T13:43:33.657Z,13.19
2023-04-26T13:46:01.151Z,12.96
2023-04-26T13:48:30.288Z,12.81
2023-04-26T13:50:58.971Z,12.88
2023-04-26T13:53:26.267Z,12.98
2023-04-26T13:55:53.607Z,12.94
2023-04-26T13:58:20.785Z,13.08
2023-04-26T14:00:47.965Z,13.29
2023-04-26T14:03:15.328Z,13.06
2023-04-26T14:05:42.759Z,12.75
2023-04-26T14:08:10.265Z,12.62
2023-04-26T14:10:37.411Z,12.55
2023-04-26T14:13:04.297Z,12.45
2023-04-26T14:15:31.741Z,12.52
2023-04-26T14:17:58.614Z,12.61
2023-04-26T14:20:25.921Z,12.73
2023-04-26T14:22:52.802Z,12.87
2023-04-26T14:25:20.132Z,12.92
2023-04-26T14:27:48.434Z,12.83
2023-04-26T14:30:15.738Z,12.67
2023-04-26T14:32:43.542Z,12.57
2023-04-26T14:35:10.627Z,12.64
2023-04-26T14:37:40.447Z,12.76
2023-04-26T14:40:08.102Z,12.64
2023-04-26T14:42:37.914Z,12.54
2023-04-26T14:45:05.085Z,12.56
2023-04-26T14:47:32.347Z,12.51
2023-04-26T14:49:59.323Z,12.42
2023-04-26T14:52:28.066Z,12.56
2023-04-26T14:54:57.524Z,12.68
2023-04-26T14:57:24.849Z,12.89
2023-04-26T14:59:51.766Z,13.15
2023-04-26T15:02:21.463Z,13.33
2023-04-26T15:04:48.622Z,13.18
2023-04-26T15:07:30.914Z,13.27
2023-04-26T15:10:01.798Z,13.24
2023-04-26T15:12:28.857Z,13.23
2023-04-26T15:14:58.473Z,13.10
2023-04-26T15:17:25.404Z,12.94
2023-04-26T15:19:52.655Z,12.76
2023-04-26T15:22:19.632Z,12.68
2023-04-26T15:24:47.052Z,12.53
2023-04-26T15:27:13.947Z,12.47
2023-04-26T15:29:41.318Z,12.31
2023-04-26T15:32:08.971Z,12.34
2023-04-26T15:34:40.690Z,12.29
2023-04-26T15:37:10.116Z,12.23
2023-04-26T15:39:37.510Z,12.32
2023-04-26T15:42:05.793Z,12.46
2023-04-26T15:44:33.042Z,12.54
2023-04-26T15:47:01.617Z,12.64
2023-04-26T15:49:31.208Z,12.63
2023-04-26T15:51:58.292Z,12.38
2023-04-26T15:54:26.555Z,12.28
2023-04-26T15:56:53.745Z,12.27
2023-04-26T15:59:21.218Z,12.27
2023-04-26T16:01:48.120Z,12.23
2023-04-26T16:04:15.879Z,12.19
2023-04-26T16:06:42.863Z,12.10
2023-04-26T16:09:24.792Z,12.02
2023-04-26T16:11:52.789Z,11.98
2023-04-26T16:14:22.494Z,11.95
2023-04-26T16:16:49.477Z,11.89
2023-04-26T16:19:17.508Z,11.86
2023-04-26T16:21:44.380Z,11.71
2023-04-26T16:24:12.421Z,11.61
2023-04-26T16:26:39.309Z,11.51
2023-04-26T16:29:06.603Z,11.45
2023-04-26T16:31:33.519Z,11.43
2023-04-26T16:34:02.968Z,11.39
2023-04-26T16:36:29.816Z,11.48
2023-04-26T16:38:57.221Z,11.42
2023-04-26T16:41:24.632Z,11.42
2023-04-26T16:43:53.254Z,11.34
2023-04-26T16:46:20.366Z,11.32
2023-04-26T16:48:47.990Z,11.25
2023-04-26T16:51:15.064Z,11.16
2023-04-26T16:53:42.545Z,11.06
2023-04-26T16:56:09.571Z,11.00
2023-04-26T16:58:39.958Z,10.97
2023-04-26T17:01:06.940Z,10.93
2023-04-26T17:03:34.402Z,10.87
2023-04-26T17:06:01.668Z,10.80
2023-04-26T17:08:29.619Z,10.83
2023-04-26T17:10:57.807Z,10.78
2023-04-26T17:13:29.551Z,10.77
2023-04-26T17:15:56.991Z,10.73
2023-04-26T17:18:27.118Z,10.76
2023-04-26T17:20:56.372Z,10.70
2023-04-26T17:23:24.560Z,10.63
2023-04-26T17:25:53.250Z,10.52
2023-04-26T17:28:24.142Z,10.43
2023-04-26T17:30:52.154Z,10.40
2023-04-26T17:33:19.768Z,10.36
2023-04-26T17:35:49.858Z,10.31
2023-04-26T17:38:17.763Z,10.26
2023-04-26T17:40:45.018Z,10.28
2023-04-26T17:43:14.466Z,10.27
2023-04-26T17:45:41.409Z,10.16
2023-04-26T17:48:13.557Z,10.10
2023-04-26T17:50:41.045Z,9.99
2023-04-26T17:53:09.022Z,9.96
2023-04-26T17:55:36.564Z,9.87
2023-04-26T17:58:04.170Z,9.81
2023-04-26T18:00:31.354Z,9.73
2023-04-26T18:02:59.107Z,9.62
2023-04-26T18:05:26.577Z,9.52
2023-04-26T18:07:54.200Z,9.44
2023-04-26T18:10:23.776Z,9.35
2023-04-26T18:12:54.026Z,9.29
2023-04-26T18:15:21.443Z,9.18
2023-04-26T18:17:51.594Z,9.09
2023-04-26T18:20:20.260Z,8.96
2023-04-26T18:22:47.531Z,8.87
2023-04-26T18:25:14.571Z,8.80
2023-04-26T18:27:43.094Z,8.77
2023-04-26T18:30:11.100Z,8.81
2023-04-26T18:32:38.784Z,8.81
2023-04-26T18:35:07.897Z,8.77
2023-04-26T18:37:36.160Z,8.71
2023-04-26T18:40:05.500Z,8.62
2023-04-26T18:42:33.510Z,8.44
2023-04-26T18:45:02.563Z,8.31
2023-04-26T18:47:31.197Z,8.14
2023-04-26T18:49:58.148Z,8.03
2023-04-26T18:52:25.484Z,7.89
2023-04-26T18:54:54.582Z,7.74
2023-04-26T18:57:23.315Z,7.66
2023-04-26T18:59:50.785Z,7.49
2023-04-26T19:02:19.002Z,7.38
2023-04-26T19:04:50.663Z,7.28
2023-04-26T19:07:21.552Z,7.26
2023-04-26T19:09:54.332Z,7.18
2023-04-26T19:12:25.853Z,7.16
2023-04-26T19:14:54.268Z,7.06
2023-04-26T19:17:24.300Z,6.99
2023-04-26T19:19:53.859Z,6.92
2023-04-26T19:22:22.674Z,6.87
2023-04-26T19:24:52.886Z,6.80
2023-04-26T19:27:21.614Z,6.74
2023-04-26T19:29:49.566Z,6.70
2023-04-26T19:32:20.918Z,6.65
2023-04-26T19:34:49.383Z,6.59
2023-04-26T19:37:18.582Z,6.52
2023-04-26T19:39:49.220Z,6.50
2023-04-26T19:42:17.869Z,6.55
2023-04-26T19:44:49.172Z,6.54
2023-04-26T19:47:18.010Z,6.50
2023-04-26T19:49:48.668Z,6.41
2023-04-26T19:52:19.533Z,6.47
2023-04-26T19:54:47.367Z,6.44
2023-04-26T19:57:17.123Z,6.40
2023-04-26T19:59:44.579Z,6.39
2023-04-26T20:02:12.892Z,6.32
2023-04-26T20:04:41.255Z,6.26
2023-04-26T20:07:08.916Z,6.25
2023-04-26T20:09:36.279Z,6.19
2023-04-26T20:12:05.098Z,6.17
2023-04-26T20:14:35.609Z,6.12
2023-04-26T20:17:03.856Z,6.09
2023-04-26T20:19:31.909Z,6.06
2023-04-26T20:22:00.749Z,6.01
2023-04-26T20:24:30.410Z,5.99
2023-04-26T20:26:58.049Z,6.05
2023-04-26T20:29:30.107Z,6.04
2023-04-26T20:32:00.232Z,6.02
2023-04-26T20:34:32.936Z,6.03
2023-04-26T20:37:00.523Z,5.96
2023-04-26T20:39:28.661Z,5.91
2023-04-26T20:41:55.979Z,5.89
2023-04-26T20:44:23.177Z,5.89
2023-04-26T20:46:50.829Z,5.85
2023-04-26T20:49:17.742Z,5.83
2023-04-26T20:51:44.893Z,5.85
2023-04-26T20:54:11.818Z,5.86
2023-04-26T20:56:39.093Z,5.86
2023-04-26T20:59:08.325Z,5.86
2023-04-26T21:01:38.173Z,5.88
2023-04-26T21:04:05.367Z,5.95
2023-04-26T21:06:35.569Z,6.05
2023-04-26T21:09:02.459Z,6.18
2023-04-26T21:11:29.592Z,6.22
2023-04-26T21:13:57.671Z,6.24
2023-04-26T21:16:27.447Z,6.30
2023-04-26T21:18:54.410Z,6.31
2023-04-26T21:21:21.660Z,6.32
2023-04-26T21:23:50.993Z,6.37
2023-04-26T21:26:18.122Z,6.37
2023-04-26T21:28:45.012Z,6.36
2023-04-26T21:31:12.412Z,6.32
2023-04-26T21:33:42.361Z,6.34
2023-04-26T21:36:09.682Z,6.35
2023-04-26T21:38:36.574Z,6.30
2023-04-26T21:41:03.765Z,6.29
2023-04-26T21:43:30.668Z,6.31
2023-04-26T21:45:58.586Z,6.32
2023-04-26T21:48:28.672Z,6.26
2023-04-26T21:50:55.950Z,6.22
2023-04-26T21:53:22.833Z,6.17
2023-04-26T21:55:51.989Z,6.15
2023-04-26T21:58:19.647Z,6.11
2023-04-26T22:00:46.895Z,6.06
2023-04-26T22:03:14.520Z,5.98
2023-04-26T22:05:41.842Z,6.02
2023-04-26T22:08:08.809Z,5.98
2023-04-26T22:10:38.585Z,5.99
2023-04-26T22:13:05.600Z,6.04
2023-04-26T22:15:32.864Z,6.07
2023-04-26T22:17:59.853Z,6.11
2023-04-26T22:20:27.055Z,6.10
2023-04-26T22:22:53.987Z,6.11
2023-04-26T22:25:21.694Z,6.07
2023-04-26T22:27:48.742Z,6.08
2023-04-26T22:30:25.569Z,6.07
2023-04-26T22:32:57.836Z,5.99
2023-04-26T22:35:26.369Z,5.90
2023-04-26T22:37:53.509Z,5.87
2023-04-26T22:40:20.946Z,5.84
2023-04-26T22:42:47.843Z,5.79
2023-04-26T22:45:15.712Z,5.82
2023-04-26T22:47:42.733Z,5.80
2023-04-26T22:50:10.388Z,5.76
2023-04-26T22:52:38.400Z,5.72
2023-04-26T22:55:06.271Z,5.67
2023-04-26T22:57:33.114Z,5.65
2023-04-26T23:00:00.346Z,5.66
2023-04-26T23:02:29.751Z,5.61
2023-04-26T23:04:57.184Z,5.68
2023-04-26T23:07:26.823Z,5.74
2023-04-26T23:09:54.278Z,5.77
2023-04-26T23:12:23.746Z,5.76
2023-04-26T23:14:55.702Z,5.74
2023-04-26T23:17:22.635Z,5.76
2023-04-26T23:19:52.459Z,5.76
2023-04-26T23:22:19.826Z,5.81
2023-04-26T23:24:47.054Z,5.77
2023-04-26T23:27:14.004Z,5.76
2023-04-26T23:29:41.260Z,5.78
2023-04-26T23:32:08.213Z,5.73
2023-04-26T23:34:35.630Z,5.71
2023-04-26T23:37:07.414Z,5.72
2023-04-26T23:39:36.443Z,5.69
2023-04-26T23:42:04.022Z,5.69
2023-04-26T23:44:31.357Z,5.65
2023-04-26T23:47:02.922Z,5.62
2023-04-26T23:49:30.275Z,5.64
2023-04-26T23:51:57.323Z,5.66
2023-04-26T23:54:24.594Z,5.65
2023-04-26T23:56:52.190Z,5.64
2023-04-26T23:59:19.368Z,5.67
